Time;durP1;ratioP1;P1;durP2;ratioP2;P2;SDS_P1;SDS_P2;PMS_P1;PMS_P2;Temp;Humidity;BMP_temperature;BMP_pressure;BME280_temperature;BME280_humidity;BME280_pressure;Samples;Min_cycle;Max_cycle;Signal;HPM_P1;HPM_P2
2021/12/04 00:01:48;;;;;;;;;16.33;14.00;;;;;;;;5120945;28;13801;-73
2021/12/04 00:04:18;;;;;;;;;14.00;14.00;;;;;;;;5122227;27;11407;-74
2021/12/04 00:06:44;;;;;;;;;14.00;13.67;;;;;;;;5122711;27;8936;-74
2021/12/04 00:09:11;;;;;;;;;14.00;11.33;;;;;;;;5122680;27;10020;-74
2021/12/04 00:11:40;;;;;;;;;15.00;15.00;;;;;;;;5123052;27;10321;-73
2021/12/04 00:14:05;;;;;;;;;13.33;11.00;;;;;;;;5121743;27;11445;-74
2021/12/04 00:16:31;;;;;;;;;14.67;13.33;;;;;;;;5122393;28;11502;-74
2021/12/04 00:18:56;;;;;;;;;14.00;11.00;;;;;;;;5121961;28;11334;-73
2021/12/04 00:21:21;;;;;;;;;19.00;14.00;;;;;;;;5121997;28;10819;-73
2021/12/04 00:23:46;;;;;;;;;12.33;9.33;;;;;;;;5122170;28;8833;-73
2021/12/04 00:26:12;;;;;;;;;16.67;13.33;;;;;;;;5121734;27;21359;-73
2021/12/04 00:28:38;;;;;;;;;12.33;9.33;;;;;;;;5121765;28;21682;-73
2021/12/04 00:31:09;;;;;;;;;16.00;12.33;;;;;;;;5120001;28;21912;-73
2021/12/04 00:33:37;;;;;;;;;15.33;13.33;;;;;;;;5120659;27;21834;-73
2021/12/04 00:36:08;;;;;;;;;12.33;8.67;;;;;;;;5122174;27;10732;-74
2021/12/04 00:49:18;;;;;;;;;15.33;13.67;;;;;;;;5121824;28;11421;-72
2021/12/04 00:51:50;;;;;;;;;13.00;10.00;;;;;;;;5121537;27;8919;-72
2021/12/04 00:54:15;;;;;;;;;16.33;13.67;;;;;;;;5120836;27;11633;-74
2021/12/04 00:56:41;;;;;;;;;13.00;11.00;;;;;;;;5120992;27;11337;-73
2021/12/04 00:59:07;;;;;;;;;16.00;13.33;;;;;;;;5121537;27;11430;-73
2021/12/04 01:01:32;;;;;;;;;10.33;7.00;;;;;;;;5121450;27;11409;-73
2021/12/04 01:03:58;;;;;;;;;9.00;4.33;;;;;;;;5121335;28;21886;-73
2021/12/04 01:06:23;;;;;;;;;5.67;5.67;;;;;;;;5120950;27;21343;-73
2021/12/04 01:08:48;;;;;;;;;8.00;7.00;;;;;;;;5121358;28;11333;-73
2021/12/04 01:11:14;;;;;;;;;9.33;8.00;;;;;;;;5119890;28;13516;-73
2021/12/04 01:13:39;;;;;;;;;8.00;6.33;;;;;;;;5121258;27;10496;-73
2021/12/04 01:16:05;;;;;;;;;6.33;6.33;;;;;;;;5120925;27;11291;-73
2021/12/04 01:18:30;;;;;;;;;8.00;8.00;;;;;;;;5122146;27;8810;-73
2021/12/04 01:20:55;;;;;;;;;7.33;7.33;;;;;;;;5121835;28;12904;-73
2021/12/04 01:23:21;;;;;;;;;13.67;10.67;;;;;;;;5121530;27;11439;-73
2021/12/04 01:25:46;;;;;;;;;14.33;12.33;;;;;;;;5121215;28;22333;-73
2021/12/04 01:28:12;;;;;;;;;16.00;15.33;;;;;;;;5120941;27;11604;-73
2021/12/04 01:30:37;;;;;;;;;12.67;7.67;;;;;;;;5121575;27;10390;-74
2021/12/04 01:33:03;;;;;;;;;15.00;9.00;;;;;;;;5120152;27;22502;-74
2021/12/04 01:35:29;;;;;;;;;10.67;10.00;;;;;;;;5120944;27;10355;-74
2021/12/04 01:37:54;;;;;;;;;11.33;5.33;;;;;;;;5119950;27;21700;-73
2021/12/04 01:40:20;;;;;;;;;9.00;9.00;;;;;;;;5120868;27;21842;-73
2021/12/04 01:42:45;;;;;;;;;13.00;9.00;;;;;;;;5121223;27;21363;-72
2021/12/04 01:45:11;;;;;;;;;9.33;7.67;;;;;;;;5121170;27;16289;-73
2021/12/04 01:47:36;;;;;;;;;10.00;10.00;;;;;;;;5121044;27;21516;-74
2021/12/04 01:50:02;;;;;;;;;6.00;4.00;;;;;;;;5120432;27;22330;-74
2021/12/04 01:52:28;;;;;;;;;10.00;7.00;;;;;;;;5118760;28;24159;-73
2021/12/04 01:54:53;;;;;;;;;10.00;7.00;;;;;;;;5119960;27;21452;-73
2021/12/04 01:57:20;;;;;;;;;9.67;9.00;;;;;;;;5120915;28;9569;-73
2021/12/04 01:59:45;;;;;;;;;10.33;8.33;;;;;;;;5120325;27;22864;-73
2021/12/04 02:02:13;;;;;;;;;9.67;9.00;;;;;;;;5120654;27;22527;-74
2021/12/04 02:04:38;;;;;;;;;7.67;7.67;;;;;;;;5120407;27;21433;-74
2021/12/04 02:07:04;;;;;;;;;7.00;7.00;;;;;;;;5119914;27;11250;-73
2021/12/04 02:09:32;;;;;;;;;4.67;4.00;;;;;;;;5121298;27;9776;-73
2021/12/04 02:11:58;;;;;;;;;6.00;6.00;;;;;;;;5120252;27;10400;-74
2021/12/04 02:14:23;;;;;;;;;13.00;9.00;;;;;;;;5120374;27;10490;-73
2021/12/04 02:16:50;;;;;;;;;9.33;6.67;;;;;;;;5118287;28;23383;-73
2021/12/04 02:19:16;;;;;;;;;6.33;6.33;;;;;;;;5120207;27;21618;-74
2021/12/04 02:21:41;;;;;;;;;13.00;9.67;;;;;;;;5120783;27;11291;-73
2021/12/04 02:24:06;;;;;;;;;8.33;7.00;;;;;;;;5120365;28;22165;-74
2021/12/04 02:26:32;;;;;;;;;9.00;7.00;;;;;;;;5119967;28;21409;-73
2021/12/04 02:28:58;;;;;;;;;11.00;9.00;;;;;;;;5120435;28;8925;-74
2021/12/04 02:31:23;;;;;;;;;14.33;6.00;;;;;;;;5117791;28;23782;-73
2021/12/04 02:33:48;;;;;;;;;11.33;7.00;;;;;;;;5119451;27;10294;-73
2021/12/04 02:36:14;;;;;;;;;9.00;9.00;;;;;;;;5120699;28;8814;-73
2021/12/04 02:38:40;;;;;;;;;7.00;7.00;;;;;;;;5119999;27;21528;-73
2021/12/04 02:41:05;;;;;;;;;9.00;7.00;;;;;;;;5120687;27;8770;-73
2021/12/04 02:43:34;;;;;;;;;13.33;7.67;;;;;;;;5120383;28;9034;-72
2021/12/04 02:46:00;;;;;;;;;8.33;7.00;;;;;;;;5120188;28;22692;-73
2021/12/04 02:48:25;;;;;;;;;4.33;4.33;;;;;;;;5120119;27;21348;-73
2021/12/04 02:50:50;;;;;;;;;5.00;5.00;;;;;;;;5120971;27;11304;-73
2021/12/04 02:53:17;;;;;;;;;7.67;7.00;;;;;;;;5120133;27;11499;-73
2021/12/04 02:55:43;;;;;;;;;5.33;5.33;;;;;;;;5118372;28;13582;-73
2021/12/04 02:58:08;;;;;;;;;9.00;6.00;;;;;;;;5119916;27;11312;-73
2021/12/04 03:00:34;;;;;;;;;6.33;6.33;;;;;;;;5120476;27;11504;-73
2021/12/04 03:03:00;;;;;;;;;6.33;6.00;;;;;;;;5120183;27;11310;-73
2021/12/04 03:05:28;;;;;;;;;11.33;7.00;;;;;;;;5120300;27;8771;-73
2021/12/04 03:07:54;;;;;;;;;11.33;9.00;;;;;;;;5119986;27;21616;-73
2021/12/04 03:10:20;;;;;;;;;7.67;6.33;;;;;;;;5120254;27;8763;-73
2021/12/04 03:12:45;;;;;;;;;8.33;5.33;;;;;;;;5119454;28;21566;-73
2021/12/04 03:15:11;;;;;;;;;6.00;6.00;;;;;;;;5119928;28;10511;-73
2021/12/04 03:17:36;;;;;;;;;9.00;7.00;;;;;;;;5118515;28;13668;-73
2021/12/04 03:20:03;;;;;;;;;9.67;9.00;;;;;;;;5122133;28;8798;-72
2021/12/04 03:22:28;;;;;;;;;6.00;6.00;;;;;;;;5124001;27;9637;-73
2021/12/04 03:24:56;;;;;;;;;10.00;7.00;;;;;;;;5123596;28;10361;-74
2021/12/04 03:27:22;;;;;;;;;7.00;4.00;;;;;;;;5122661;27;21454;-73
2021/12/04 03:29:59;;;;;;;;;6.00;6.00;;;;;;;;5122651;27;21474;-73
2021/12/04 03:42:59;;;;;;;;;4.67;4.67;;;;;;;;5123289;27;10352;-73
2021/12/04 03:45:24;;;;;;;;;4.00;4.00;;;;;;;;5123304;27;11436;-73
2021/12/04 03:47:52;;;;;;;;;6.33;6.33;;;;;;;;5123068;27;9468;-73
2021/12/04 03:50:17;;;;;;;;;12.00;7.00;;;;;;;;5122424;27;11601;-73
2021/12/04 03:52:43;;;;;;;;;12.00;9.00;;;;;;;;5122905;27;22650;-73
2021/12/04 03:55:08;;;;;;;;;8.67;6.00;;;;;;;;5123440;27;8901;-74
2021/12/04 03:57:34;;;;;;;;;7.67;6.33;;;;;;;;5123102;27;22485;-74
2021/12/04 04:00:00;;;;;;;;;6.67;4.00;;;;;;;;5122938;27;12046;-76
2021/12/04 04:02:26;;;;;;;;;7.67;7.67;;;;;;;;5122151;27;11486;-75
2021/12/04 04:04:51;;;;;;;;;15.33;7.00;;;;;;;;5128700;27;11293;-75
2021/12/04 04:07:17;;;;;;;;;7.67;7.00;;;;;;;;5142766;27;21673;-76
2021/12/04 04:09:42;;;;;;;;;6.33;6.00;;;;;;;;5142807;27;16378;-75
2021/12/04 04:12:07;;;;;;;;;7.67;6.00;;;;;;;;5143494;27;11712;-75
2021/12/04 04:14:33;;;;;;;;;6.67;6.67;;;;;;;;5143766;27;8871;-75
2021/12/04 04:16:58;;;;;;;;;6.00;6.00;;;;;;;;5143656;27;11273;-75
2021/12/04 04:19:24;;;;;;;;;6.00;6.00;;;;;;;;5143420;27;9588;-75
2021/12/04 04:21:55;;;;;;;;;7.00;3.00;;;;;;;;5143665;27;8748;-76
2021/12/04 04:24:20;;;;;;;;;4.00;4.00;;;;;;;;5143067;27;9112;-75
2021/12/04 04:26:46;;;;;;;;;7.00;4.00;;;;;;;;5158752;27;10823;-75
2021/12/04 04:29:12;;;;;;;;;7.00;5.33;;;;;;;;5142918;27;8772;-75
2021/12/04 04:31:46;;;;;;;;;6.00;6.00;;;;;;;;5142755;27;9630;-76
2021/12/04 04:34:12;;;;;;;;;6.00;4.67;;;;;;;;5142513;27;11613;-75
2021/12/04 04:59:10;;;;;;;;;8.33;6.33;;;;;;;;5136027;27;9756;-74
2021/12/04 05:14:56;;;;;;;;;9.67;9.00;;;;;;;;5141999;27;16259;-75
2021/12/04 05:20:06;;;;;;;;;6.67;6.67;;;;;;;;5142230;27;11319;-76
2021/12/04 05:22:32;;;;;;;;;6.33;6.00;;;;;;;;5142180;27;9551;-76
2021/12/04 05:24:57;;;;;;;;;3.00;1.00;;;;;;;;5140441;27;10535;-76
2021/12/04 05:27:22;;;;;;;;;9.00;7.00;;;;;;;;5141788;27;10295;-75
2021/12/04 05:29:48;;;;;;;;;7.67;7.67;;;;;;;;5140469;27;11131;-74
2021/12/04 05:32:15;;;;;;;;;9.75;9.50;;;;;;;;5142158;27;11276;-75
2021/12/04 05:34:40;;;;;;;;;7.00;7.00;;;;;;;;5141711;27;11544;-74
2021/12/04 05:37:05;;;;;;;;;9.00;9.00;;;;;;;;5142273;27;13333;-74
2021/12/04 05:39:31;;;;;;;;;12.33;9.33;;;;;;;;5141913;27;8788;-76
2021/12/04 05:41:56;;;;;;;;;15.50;13.00;;;;;;;;5140631;27;21639;-76
2021/12/04 05:44:25;;;;;;;;;7.67;6.67;;;;;;;;5141155;27;21592;-73
2021/12/04 05:46:57;;;;;;;;;9.75;9.00;;;;;;;;5157103;27;24609;-77
2021/12/04 05:49:27;;;;;;;;;10.75;10.00;;;;;;;;5142045;27;11552;-74
2021/12/04 05:57:05;;;;;;;;;12.67;10.00;;;;;;;;5141109;27;21464;-79
2021/12/04 05:59:31;;;;;;;;;9.75;6.00;;;;;;;;5140755;27;21589;-78
2021/12/04 06:01:57;;;;;;;;;10.50;10.00;;;;;;;;5140875;27;22150;-78
2021/12/04 06:04:22;;;;;;;;;9.00;9.00;;;;;;;;5140845;27;22235;-79
2021/12/04 06:06:47;;;;;;;;;7.50;7.50;;;;;;;;5141209;27;23351;-76
2021/12/04 06:09:13;;;;;;;;;10.25;7.00;;;;;;;;5141307;27;11417;-76
2021/12/04 06:11:38;;;;;;;;;8.00;8.00;;;;;;;;5140837;27;21545;-76
2021/12/04 06:14:04;;;;;;;;;6.75;6.75;;;;;;;;5141334;27;23864;-77
2021/12/04 06:16:29;;;;;;;;;11.00;10.00;;;;;;;;5141408;27;11986;-76
2021/12/04 06:18:55;;;;;;;;;9.00;9.00;;;;;;;;5140919;27;22218;-76
2021/12/04 06:24:05;;;;;;;;;10.25;9.50;;;;;;;;5141555;27;10290;-79
2021/12/04 06:26:31;;;;;;;;;13.00;9.00;;;;;;;;5141254;27;22534;-77
2021/12/04 06:28:56;;;;;;;;;10.50;10.00;;;;;;;;5140822;27;10300;-76
2021/12/04 06:31:22;;;;;;;;;9.50;9.50;;;;;;;;5134644;27;21499;-76
2021/12/04 06:33:47;;;;;;;;;9.00;9.00;;;;;;;;5124672;27;22267;-77
2021/12/04 06:36:12;;;;;;;;;12.25;9.25;;;;;;;;5131031;27;8781;-76
2021/12/04 06:38:38;;;;;;;;;12.25;12.25;;;;;;;;5129752;27;23240;-76
2021/12/04 06:41:04;;;;;;;;;13.25;10.00;;;;;;;;5091105;27;16532;-75
2021/12/04 06:43:29;;;;;;;;;11.00;8.50;;;;;;;;5136935;27;11459;-77
2021/12/04 06:46:00;;;;;;;;;11.00;9.00;;;;;;;;5064057;27;21599;-76
2021/12/04 06:48:32;;;;;;;;;12.75;10.00;;;;;;;;5131147;27;8815;-77
2021/12/04 06:51:08;;;;;;;;;15.50;9.75;;;;;;;;5118383;27;23822;-76
2021/12/04 06:53:41;;;;;;;;;6.75;5.00;;;;;;;;5119849;27;21725;-76
2021/12/04 06:56:08;;;;;;;;;15.25;12.25;;;;;;;;5121611;28;23573;-80
2021/12/04 06:58:35;;;;;;;;;13.50;9.25;;;;;;;;5122066;27;22423;-79
2021/12/04 07:01:00;;;;;;;;;11.25;8.50;;;;;;;;5122186;27;21846;-80
2021/12/04 07:03:25;;;;;;;;;12.00;10.00;;;;;;;;5120353;28;10575;-78
2021/12/04 07:05:51;;;;;;;;;12.00;12.00;;;;;;;;5121925;28;22244;-78
2021/12/04 07:08:16;;;;;;;;;12.00;12.00;;;;;;;;5122941;27;8913;-77
2021/12/04 07:10:42;;;;;;;;;13.33;9.33;;;;;;;;5122398;28;8803;-77
2021/12/04 07:13:08;;;;;;;;;10.67;10.67;;;;;;;;5120077;28;23203;-76
2021/12/04 07:15:33;;;;;;;;;12.33;12.00;;;;;;;;5121634;27;21763;-77
2021/12/04 07:17:59;;;;;;;;;9.33;9.00;;;;;;;;5121635;27;11724;-76
2021/12/04 07:20:25;;;;;;;;;10.00;9.25;;;;;;;;5121302;27;22203;-75
2021/12/04 07:22:50;;;;;;;;;11.33;9.33;;;;;;;;5121245;27;21572;-75
2021/12/04 07:25:15;;;;;;;;;12.25;12.25;;;;;;;;5121440;27;8848;-76
2021/12/04 07:27:41;;;;;;;;;13.00;10.67;;;;;;;;5123859;27;21375;-75
2021/12/04 07:30:07;;;;;;;;;12.67;10.33;;;;;;;;5134740;27;11575;-77
2021/12/04 07:32:33;;;;;;;;;15.00;15.00;;;;;;;;5132147;27;11488;-73
2021/12/04 07:34:58;;;;;;;;;13.00;13.00;;;;;;;;5128689;27;13609;-75
2021/12/04 07:37:24;;;;;;;;;9.00;9.00;;;;;;;;5133434;27;8914;-84
2021/12/04 07:39:49;;;;;;;;;12.33;11.33;;;;;;;;5130356;27;24814;-76
2021/12/04 07:42:15;;;;;;;;;11.33;9.00;;;;;;;;5131432;27;22223;-79
2021/12/04 07:44:40;;;;;;;;;13.00;12.67;;;;;;;;5133537;27;21374;-80
2021/12/04 07:47:05;;;;;;;;;12.67;10.67;;;;;;;;5130692;27;23876;-84
2021/12/04 07:49:31;;;;;;;;;11.33;6.67;;;;;;;;5130436;27;10499;-80
2021/12/04 07:51:56;;;;;;;;;8.33;8.33;;;;;;;;5133380;27;21371;-78
2021/12/04 07:54:21;;;;;;;;;13.00;10.00;;;;;;;;5131017;27;21811;-79
2021/12/04 07:56:47;;;;;;;;;14.33;9.67;;;;;;;;5130551;27;22560;-78
2021/12/04 07:59:12;;;;;;;;;9.33;9.00;;;;;;;;5132633;27;21642;-79
2021/12/04 08:01:40;;;;;;;;;12.67;10.67;;;;;;;;5130355;27;22476;-79
2021/12/04 08:04:05;;;;;;;;;13.00;10.67;;;;;;;;5132079;27;22395;-79
2021/12/04 08:06:33;;;;;;;;;6.67;5.33;;;;;;;;5135519;27;9194;-80
2021/12/04 08:08:59;;;;;;;;;15.00;12.25;;;;;;;;5127450;27;23391;-81
2021/12/04 08:11:27;;;;;;;;;12.00;12.00;;;;;;;;5136353;27;23513;-77
2021/12/04 08:13:52;;;;;;;;;12.33;12.33;;;;;;;;5139216;27;12796;-79
2021/12/04 08:16:23;;;;;;;;;16.00;16.00;;;;;;;;5143002;27;9072;-78
2021/12/04 08:18:49;;;;;;;;;15.00;12.00;;;;;;;;5134174;27;13745;-78
2021/12/04 08:21:14;;;;;;;;;19.00;15.00;;;;;;;;5142816;27;8787;-76
2021/12/04 08:23:39;;;;;;;;;16.00;15.67;;;;;;;;5142853;27;8788;-77
2021/12/04 08:26:04;;;;;;;;;17.33;13.00;;;;;;;;5124818;27;11403;-77
2021/12/04 08:28:30;;;;;;;;;19.00;13.00;;;;;;;;5121891;28;11351;-76
2021/12/04 08:30:55;;;;;;;;;12.00;10.00;;;;;;;;5122184;28;8894;-80
2021/12/04 08:33:20;;;;;;;;;12.00;12.00;;;;;;;;5121238;27;8810;-78
2021/12/04 08:35:46;;;;;;;;;18.00;14.00;;;;;;;;5121873;28;8806;-78
2021/12/04 08:38:12;;;;;;;;;10.00;10.00;;;;;;;;5122119;27;9265;-78
2021/12/04 08:40:38;;;;;;;;;12.67;10.00;;;;;;;;5121949;27;10453;-78
2021/12/04 08:43:04;;;;;;;;;15.00;13.00;;;;;;;;5121855;27;8889;-82
2021/12/04 08:45:30;;;;;;;;;12.00;12.00;;;;;;;;5131387;27;12911;-80
2021/12/04 08:47:55;;;;;;;;;15.67;10.00;;;;;;;;5121556;27;8794;-79
2021/12/04 08:50:23;;;;;;;;;12.00;11.33;;;;;;;;5121746;27;11009;-79
2021/12/04 08:52:49;;;;;;;;;24.00;19.00;;;;;;;;5120661;27;11945;-79
2021/12/04 08:55:15;;;;;;;;;15.67;14.33;;;;;;;;5120936;27;13279;-79
2021/12/04 08:57:41;;;;;;;;;19.67;14.67;;;;;;;;5121637;27;13282;-82
2021/12/04 09:00:15;;;;;;;;;13.00;12.00;;;;;;;;5121862;27;11488;-83
2021/12/04 09:02:40;;;;;;;;;15.67;13.67;;;;;;;;5119793;27;13062;-86
2021/12/04 09:05:06;;;;;;;;;16.75;15.25;;;;;;;;5121053;28;11523;-78
2021/12/04 09:07:31;;;;;;;;;19.00;16.00;;;;;;;;5121287;27;11577;-78
2021/12/04 09:09:57;;;;;;;;;15.00;13.00;;;;;;;;5121143;28;11613;-77
2021/12/04 09:12:47;;;;;;;;;18.00;16.00;;;;;;;;5119373;28;9528;-80
2021/12/04 09:15:14;;;;;;;;;13.00;10.67;;;;;;;;5119570;28;10552;-73
2021/12/04 09:17:40;;;;;;;;;15.33;12.00;;;;;;;;5120746;27;12803;-76
2021/12/04 09:20:06;;;;;;;;;14.33;13.67;;;;;;;;5121605;27;11673;-78
2021/12/04 09:22:35;;;;;;;;;15.00;13.00;;;;;;;;5120955;27;11470;-77
2021/12/04 09:25:04;;;;;;;;;12.00;10.67;;;;;;;;5121676;27;11449;-79
2021/12/04 10:00:19;;;;;;;;;15.00;15.00;;;;;;;;5121078;28;14259;-78
2021/12/04 10:03:08;;;;;;;;;13.33;11.33;;;;;;;;5120678;27;13466;-79
2021/12/04 10:18:40;;;;;;;;;15.33;13.00;;;;;;;;5120442;28;11307;-78
2021/12/04 10:34:29;;;;;;;;;12.67;12.00;;;;;;;;5120543;28;8877;-77
2021/12/04 10:37:03;;;;;;;;;12.33;12.33;;;;;;;;5120917;27;9499;-80
2021/12/04 10:39:29;;;;;;;;;13.00;13.00;;;;;;;;5119837;27;8809;-78
2021/12/04 10:41:55;;;;;;;;;21.00;15.00;;;;;;;;5120531;28;11338;-78
2021/12/04 10:44:21;;;;;;;;;22.00;19.00;;;;;;;;5120537;27;10924;-79
2021/12/04 10:47:05;;;;;;;;;18.33;13.00;;;;;;;;5120714;27;8893;-77
2021/12/04 10:49:46;;;;;;;;;19.00;17.33;;;;;;;;5120981;27;12276;-78
2021/12/04 10:52:18;;;;;;;;;19.00;15.00;;;;;;;;5118649;28;13778;-78
2021/12/04 10:54:50;;;;;;;;;22.00;17.33;;;;;;;;5120387;28;9564;-78
2021/12/04 11:02:37;;;;;;;;;23.33;19.00;;;;;;;;5120218;28;10533;-78
2021/12/04 11:05:27;;;;;;;;;21.00;19.00;;;;;;;;5120059;27;13464;-78
2021/12/04 11:19:03;;;;;;;;;20.67;18.00;;;;;;;;5120091;28;10021;-78
2021/12/04 11:22:00;;;;;;;;;21.00;18.67;;;;;;;;5119463;28;11496;-77
2021/12/04 11:40:31;;;;;;;;;17.33;15.33;;;;;;;;5120562;27;10395;-80
2021/12/04 11:43:03;;;;;;;;;20.33;18.67;;;;;;;;5122863;27;14952;-80
2021/12/04 11:45:40;;;;;;;;;25.00;25.00;;;;;;;;5121725;28;15464;-77
2021/12/04 11:48:05;;;;;;;;;25.00;21.33;;;;;;;;5121210;28;12646;-76
2021/12/04 11:50:33;;;;;;;;;27.50;24.00;;;;;;;;5122796;27;8939;-76
2021/12/04 11:53:04;;;;;;;;;20.50;18.50;;;;;;;;5122912;27;11494;-78
2021/12/04 11:55:33;;;;;;;;;27.00;21.00;;;;;;;;5122640;27;12795;-77
2021/12/04 11:57:58;;;;;;;;;30.25;26.50;;;;;;;;5135912;27;12672;-76
2021/12/04 12:00:31;;;;;;;;;27.00;22.00;;;;;;;;5141989;27;13472;-78
2021/12/04 12:03:05;;;;;;;;;22.00;22.00;;;;;;;;5141040;27;13747;-78
2021/12/04 12:05:39;;;;;;;;;26.33;20.33;;;;;;;;5143522;27;8780;-78
2021/12/04 12:08:05;;;;;;;;;32.33;27.00;;;;;;;;5142398;27;11462;-83
2021/12/04 12:10:30;;;;;;;;;29.33;23.33;;;;;;;;5142332;27;15541;-83
2021/12/04 12:13:04;;;;;;;;;30.33;24.67;;;;;;;;5143236;27;13879;-87
2021/12/04 12:15:33;;;;;;;;;30.00;22.00;;;;;;;;5142918;27;13587;-81
2021/12/04 12:18:15;;;;;;;;;24.33;21.67;;;;;;;;5143197;27;10706;-80
2021/12/04 12:20:44;;;;;;;;;33.75;29.50;;;;;;;;5142982;27;14018;-82
2021/12/04 12:23:11;;;;;;;;;31.00;30.67;;;;;;;;5142545;27;13580;-83
2021/12/04 12:34:10;;;;;;;;;41.50;38.75;;;;;;;;5141314;27;12269;-83
2021/12/04 12:36:36;;;;;;;;;43.25;40.00;;;;;;;;5138376;27;13740;-86
2021/12/04 12:39:08;;;;;;;;;43.75;40.00;;;;;;;;5141640;27;12234;-83
2021/12/04 12:41:44;;;;;;;;;44.00;40.25;;;;;;;;5139984;27;8815;-84
2021/12/04 12:44:10;;;;;;;;;45.75;40.00;;;;;;;;5139634;27;11983;-87
2021/12/04 12:46:41;;;;;;;;;52.25;42.75;;;;;;;;5142318;27;11452;-86
2021/12/04 12:49:18;;;;;;;;;43.75;39.00;;;;;;;;5143049;27;14983;-80
2021/12/04 12:51:44;;;;;;;;;45.25;39.75;;;;;;;;5142637;27;13309;-76
2021/12/04 12:54:09;;;;;;;;;47.50;40.75;;;;;;;;5141252;27;11522;-77
2021/12/04 12:56:37;;;;;;;;;49.50;41.50;;;;;;;;5142652;27;13561;-76
2021/12/04 12:59:08;;;;;;;;;37.00;36.75;;;;;;;;5140144;27;11997;-77
2021/12/04 13:13:22;;;;;;;;;43.75;38.00;;;;;;;;5139342;27;12250;-75
2021/12/04 13:15:48;;;;;;;;;43.75;38.00;;;;;;;;5139163;27;11470;-75
2021/12/04 13:18:21;;;;;;;;;42.00;35.25;;;;;;;;5138207;27;8850;-73
2021/12/04 13:20:47;;;;;;;;;41.00;36.00;;;;;;;;5138874;27;11507;-73
2021/12/04 13:23:15;;;;;;;;;28.33;28.33;;;;;;;;5135506;27;11454;-74
2021/12/04 13:25:51;;;;;;;;;41.33;36.33;;;;;;;;5138861;27;13724;-76
2021/12/04 13:30:44;;;;;;;;;42.75;38.75;;;;;;;;5140587;27;12480;-71
2021/12/04 13:33:09;;;;;;;;;47.50;41.75;;;;;;;;5127719;27;12335;-73
2021/12/04 13:35:35;;;;;;;;;51.00;42.25;;;;;;;;5129784;27;13683;-76
2021/12/04 13:38:03;;;;;;;;;53.00;42.00;;;;;;;;5127967;27;13615;-73
2021/12/04 13:40:28;;;;;;;;;48.25;41.50;;;;;;;;5145516;27;11683;-73
2021/12/04 13:42:53;;;;;;;;;45.25;40.75;;;;;;;;5130120;27;13212;-73
2021/12/04 13:45:20;;;;;;;;;52.75;43.50;;;;;;;;5128913;27;11597;-74
2021/12/04 13:47:53;;;;;;;;;55.00;43.50;;;;;;;;5130319;27;13318;-73
2021/12/04 13:51:02;;;;;;;;;42.75;39.25;;;;;;;;5130714;27;9024;-72
2021/12/04 13:53:29;;;;;;;;;54.50;44.25;;;;;;;;5115045;27;13771;-74
2021/12/04 13:55:59;;;;;;;;;52.00;46.75;;;;;;;;5132851;27;12410;-75
2021/12/04 13:58:25;;;;;;;;;26.75;26.75;;;;;;;;5128646;27;11745;-73
2021/12/04 14:00:50;;;;;;;;;49.00;41.75;;;;;;;;5127553;27;12395;-73
2021/12/04 14:03:20;;;;;;;;;45.00;42.00;;;;;;;;5130766;27;13339;-76
2021/12/04 14:05:45;;;;;;;;;51.25;45.25;;;;;;;;5128076;27;11720;-73
2021/12/04 14:08:11;;;;;;;;;53.00;46.50;;;;;;;;5130201;27;13250;-75
2021/12/04 14:10:38;;;;;;;;;54.25;44.50;;;;;;;;5138723;27;11629;-76
2021/12/04 14:13:04;;;;;;;;;60.25;46.50;;;;;;;;5140108;27;10431;-73
2021/12/04 14:15:30;;;;;;;;;53.75;44.00;;;;;;;;5140274;27;10689;-73
2021/12/04 14:18:03;;;;;;;;;47.75;43.00;;;;;;;;5141249;27;13274;-74
2021/12/04 14:20:29;;;;;;;;;49.75;42.00;;;;;;;;5140502;27;10713;-73
2021/12/04 14:22:55;;;;;;;;;39.25;32.75;;;;;;;;5140544;27;8804;-73
2021/12/04 14:25:22;;;;;;;;;44.33;39.00;;;;;;;;5140680;27;13448;-73
2021/12/04 14:27:48;;;;;;;;;35.33;35.00;;;;;;;;5140830;27;13335;-75
2021/12/04 14:30:16;;;;;;;;;37.67;34.00;;;;;;;;5140163;27;10401;-73
2021/12/04 14:32:43;;;;;;;;;41.67;37.00;;;;;;;;5140356;27;10458;-72
2021/12/04 14:35:15;;;;;;;;;34.00;31.00;;;;;;;;5141013;27;12270;-74
2021/12/04 14:37:42;;;;;;;;;40.67;37.00;;;;;;;;5138816;27;12835;-75
2021/12/04 14:40:13;;;;;;;;;38.33;34.00;;;;;;;;5126763;27;12330;-74
2021/12/04 14:42:38;;;;;;;;;42.33;40.00;;;;;;;;5120941;27;12282;-74
2021/12/04 14:45:06;;;;;;;;;49.25;41.00;;;;;;;;5122306;27;10985;-74
2021/12/04 14:47:35;;;;;;;;;41.33;38.00;;;;;;;;5128228;27;8908;-74
2021/12/04 14:50:02;;;;;;;;;51.00;42.75;;;;;;;;5127081;27;9618;-73
2021/12/04 14:52:31;;;;;;;;;52.75;42.00;;;;;;;;5128385;27;13433;-74
2021/12/04 14:54:56;;;;;;;;;56.25;47.00;;;;;;;;5132725;22;11851;-87
2021/12/04 14:57:24;;;;;;;;;50.25;42.25;;;;;;;;5070622;28;11889;-87
2021/12/04 15:00:07;;;;;;;;;49.25;43.25;;;;;;;;5068237;28;12948;-86
2021/12/04 15:02:32;;;;;;;;;54.25;44.50;;;;;;;;5067342;28;12521;-88
2021/12/04 15:04:57;;;;;;;;;53.75;45.00;;;;;;;;5070720;28;15378;-86
2021/12/04 15:07:32;;;;;;;;;53.25;44.00;;;;;;;;5067524;28;12356;-87
2021/12/04 15:09:58;;;;;;;;;50.00;42.00;;;;;;;;5088585;28;9045;-86
2021/12/04 15:12:32;;;;;;;;;49.75;43.25;;;;;;;;5068029;28;14285;-91
2021/12/04 15:15:04;;;;;;;;;43.75;41.75;;;;;;;;5071533;28;15697;-95
2021/12/04 15:17:30;;;;;;;;;42.75;40.75;;;;;;;;5072075;28;12797;-86
2021/12/04 15:20:19;;;;;;;;;43.75;39.00;;;;;;;;5090728;28;8891;-85
2021/12/04 15:22:46;;;;;;;;;40.00;37.00;;;;;;;;5092066;28;13433;-87
2021/12/04 15:25:13;;;;;;;;;37.67;33.33;;;;;;;;5070842;28;12422;-85
2021/12/04 15:27:38;;;;;;;;;36.33;34.33;;;;;;;;5073055;28;15401;-87
2021/12/04 15:30:07;;;;;;;;;41.33;37.33;;;;;;;;5092549;28;10328;-86
2021/12/04 15:32:36;;;;;;;;;35.00;34.33;;;;;;;;5073975;28;12683;-83
2021/12/04 15:35:16;;;;;;;;;40.67;39.00;;;;;;;;5090093;28;12608;-78
2021/12/04 15:37:51;;;;;;;;;48.50;42.00;;;;;;;;5091306;28;13340;-80
2021/12/04 15:41:05;;;;;;;;;41.33;37.33;;;;;;;;5089288;28;11477;-78
2021/12/04 15:53:57;;;;;;;;;37.33;32.67;;;;;;;;5090674;28;13553;-82
2021/12/04 15:56:28;;;;;;;;;42.33;38.67;;;;;;;;5089726;28;13301;-82
2021/12/04 15:58:54;;;;;;;;;46.50;39.00;;;;;;;;5092835;28;10586;-82
2021/12/04 16:01:25;;;;;;;;;32.75;28.75;;;;;;;;5070037;28;11726;-80
2021/12/04 16:03:51;;;;;;;;;48.50;42.50;;;;;;;;5090019;28;13437;-76
2021/12/04 16:06:16;;;;;;;;;53.25;43.50;;;;;;;;5069996;28;15326;-82
2021/12/04 16:08:42;;;;;;;;;40.00;37.67;;;;;;;;5072337;28;12704;-83
2021/12/04 16:11:08;;;;;;;;;36.33;34.33;;;;;;;;5090069;28;13824;-79
2021/12/04 16:13:38;;;;;;;;;43.00;38.00;;;;;;;;5097069;28;13323;-81
2021/12/04 16:16:14;;;;;;;;;39.67;37.00;;;;;;;;5100114;28;13385;-81
2021/12/04 16:18:40;;;;;;;;;42.00;35.33;;;;;;;;5089240;28;12409;-78
2021/12/04 16:21:07;;;;;;;;;32.33;32.00;;;;;;;;5091571;28;13318;-86
2021/12/04 17:28:34;;;;;;;;;26.00;22.50;;;;;;;;5189440;27;77910;-74
2021/12/04 17:30:59;;;;;;;;;25.00;21.33;;;;;;;;5176299;27;23886;-73
2021/12/04 17:33:25;;;;;;;;;22.67;19.67;;;;;;;;5177871;27;11646;-74
2021/12/04 17:35:50;;;;;;;;;24.67;22.00;;;;;;;;5177990;27;12332;-73
2021/12/04 17:38:15;;;;;;;;;18.33;18.33;;;;;;;;5178692;27;12245;-81
2021/12/04 17:40:42;;;;;;;;;24.33;18.33;;;;;;;;5179935;27;14459;-80
2021/12/04 17:43:07;;;;;;;;;26.33;17.33;;;;;;;;5179628;27;9509;-82
2021/12/04 17:45:33;;;;;;;;;24.33;19.67;;;;;;;;5178606;27;8811;-82
2021/12/04 17:48:02;;;;;;;;;20.33;15.33;;;;;;;;5177141;27;12691;-83
2021/12/04 17:50:27;;;;;;;;;23.67;22.00;;;;;;;;5178525;27;11518;-83
2021/12/04 17:52:54;;;;;;;;;49.67;40.67;;;;;;;;5179675;27;12260;-84
2021/12/04 17:55:21;;;;;;;;;26.33;24.00;;;;;;;;5177050;27;14098;-84
2021/12/04 17:57:46;;;;;;;;;25.67;24.00;;;;;;;;5178179;27;16129;-83
2021/12/04 18:00:19;;;;;;;;;33.67;33.67;;;;;;;;5179777;27;8887;-87
2021/12/04 18:02:45;;;;;;;;;31.67;27.00;;;;;;;;5178872;27;13290;-79
2021/12/04 18:05:11;;;;;;;;;19.00;16.00;;;;;;;;5177130;27;12563;-81
2021/12/04 18:07:39;;;;;;;;;26.00;26.00;;;;;;;;5178742;27;14087;-80
2021/12/04 18:10:07;;;;;;;;;28.33;24.33;;;;;;;;5178430;27;9676;-81
2021/12/04 18:12:35;;;;;;;;;22.00;22.00;;;;;;;;5179667;27;11859;-78
2021/12/04 18:15:04;;;;;;;;;23.00;20.33;;;;;;;;5178829;27;11814;-80
2021/12/04 18:17:29;;;;;;;;;30.00;26.33;;;;;;;;5177708;27;11457;-79
2021/12/04 18:19:56;;;;;;;;;25.67;20.00;;;;;;;;5179637;27;10343;-79
2021/12/04 18:22:24;;;;;;;;;23.00;19.33;;;;;;;;5179046;27;13895;-79
2021/12/04 18:24:49;;;;;;;;;29.33;27.33;;;;;;;;5180737;27;12271;-79
2021/12/04 18:27:15;;;;;;;;;23.00;21.67;;;;;;;;5179704;27;11420;-81
2021/12/04 18:29:41;;;;;;;;;21.33;19.67;;;;;;;;5178729;27;11373;-82
2021/12/04 18:32:07;;;;;;;;;24.33;21.33;;;;;;;;5168795;27;11867;-80
2021/12/04 18:34:33;;;;;;;;;20.33;18.33;;;;;;;;5167378;27;12240;-82
2021/12/04 18:36:58;;;;;;;;;24.67;24.00;;;;;;;;5169887;27;10759;-81
2021/12/04 18:39:25;;;;;;;;;;;;;;;;;;5159240;27;12328;-81
2021/12/04 18:41:53;;;;;;;;;;;;;;;;;;5158012;27;23425;-82
2021/12/04 18:44:19;;;;;;;;;22.33;22.33;;;;;;;;5155334;27;7555;-83
2021/12/04 18:46:45;;;;;;;;;30.00;28.67;;;;;;;;5148351;27;24205;-81
2021/12/04 18:49:13;;;;;;;;;32.75;29.50;;;;;;;;5143173;27;13607;-82